createdAt,value
2023-02-28T00:00:48.566Z,6.23
2023-02-28T00:03:21.122Z,6.20
2023-02-28T00:05:51.054Z,5.30
2023-02-28T00:08:20.846Z,5.60
2023-02-28T00:10:50.681Z,3.67
2023-02-28T00:13:20.563Z,4.40
2023-02-28T00:15:50.379Z,4.73
2023-02-28T00:18:22.789Z,3.37
2023-02-28T00:20:52.600Z,3.30
2023-02-28T00:23:22.652Z,4.87
2023-02-28T00:25:52.868Z,4.63
2023-02-28T00:28:24.469Z,4.53
2023-02-28T00:30:54.385Z,4.20
2023-02-28T00:33:26.954Z,2.03
2023-02-28T00:36:04.974Z,3.80
2023-02-28T00:38:34.878Z,3.03
2023-02-28T00:41:06.626Z,3.33
2023-02-28T00:43:37.792Z,2.43
2023-02-28T00:46:08.696Z,3.30
2023-02-28T00:48:41.305Z,4.03
2023-02-28T00:51:11.257Z,4.10
2023-02-28T00:53:41.101Z,3.57
2023-02-28T00:56:11.290Z,2.80
2023-02-28T00:58:41.127Z,2.97
2023-02-28T01:01:10.987Z,5.17
2023-02-28T01:03:43.490Z,2.80
2023-02-28T01:06:13.327Z,3.23
2023-02-28T01:08:43.108Z,5.00
2023-02-28T01:11:14.109Z,3.57
2023-02-28T01:13:45.364Z,5.10
2023-02-28T01:16:15.605Z,3.17
2023-02-28T01:18:48.500Z,4.60
2023-02-28T01:21:20.384Z,4.20
2023-02-28T01:23:51.095Z,1.70
2023-02-28T01:26:22.763Z,3.37
2023-02-28T01:28:53.341Z,2.20
2023-02-28T01:31:24.390Z,2.57
2023-02-28T01:33:56.898Z,3.33
2023-02-28T01:36:28.578Z,4.13
2023-02-28T01:38:58.446Z,2.87
2023-02-28T01:41:31.246Z,2.67
2023-02-28T01:44:09.605Z,7.00
2023-02-28T01:46:39.981Z,2.47
2023-02-28T01:49:17.277Z,5.27
2023-02-28T01:51:51.986Z,4.30
2023-02-28T01:54:26.509Z,3.40
2023-02-28T01:57:00.667Z,2.63
2023-02-28T01:59:35.692Z,3.50
2023-02-28T02:02:05.714Z,3.17
2023-02-28T02:04:44.009Z,4.73
2023-02-28T02:07:14.746Z,2.43
2023-02-28T02:09:44.583Z,3.90
2023-02-28T02:12:29.530Z,3.40
2023-02-28T02:15:09.812Z,2.73
2023-02-28T02:17:45.874Z,2.07
2023-02-28T02:20:50.508Z,3.87
2023-02-28T02:24:04.642Z,2.73
2023-02-28T02:27:01.700Z,2.03
2023-02-28T02:30:03.318Z,1.63
2023-02-28T02:33:09.703Z,2.07
2023-02-28T02:35:47.601Z,4.23
2023-02-28T02:38:24.037Z,3.87
2023-02-28T02:41:03.616Z,2.77
2023-02-28T02:43:38.657Z,5.60
2023-02-28T02:46:13.128Z,3.13
2023-02-28T02:48:45.853Z,3.17
2023-02-28T02:51:20.860Z,2.50
2023-02-28T02:53:56.036Z,3.20
2023-02-28T02:56:30.563Z,1.53
2023-02-28T02:59:06.107Z,3.17
2023-02-28T03:01:38.652Z,2.63
2023-02-28T03:04:11.696Z,4.37
2023-02-28T03:06:44.174Z,2.67
2023-02-28T03:09:14.012Z,3.20
2023-02-28T03:11:45.239Z,1.57
2023-02-28T03:14:34.611Z,2.33
2023-02-28T03:17:20.152Z,3.37
2023-02-28T03:19:58.635Z,3.77
2023-02-28T03:22:44.487Z,4.77
2023-02-28T03:25:20.605Z,2.57
2023-02-28T03:27:59.204Z,2.73
2023-02-28T03:30:33.185Z,3.50
2023-02-28T03:33:09.153Z,2.27
2023-02-28T03:35:42.976Z,4.20
2023-02-28T03:38:20.373Z,3.53
2023-02-28T03:40:54.076Z,2.70
2023-02-28T03:43:27.835Z,5.30
2023-02-28T03:46:00.224Z,2.70
2023-02-28T03:48:35.728Z,2.80
2023-02-28T03:51:07.301Z,3.03
2023-02-28T03:53:44.779Z,3.53
2023-02-28T03:56:20.120Z,2.10
2023-02-28T03:58:57.921Z,3.97
2023-02-28T04:01:32.549Z,4.10
2023-02-28T04:04:03.331Z,7.07
2023-02-28T04:06:36.082Z,5.53
2023-02-28T04:11:41.329Z,5.17
2023-02-28T04:14:12.522Z,3.77
2023-02-28T04:16:44.628Z,5.50
2023-02-28T04:19:16.032Z,3.40
2023-02-28T04:21:48.206Z,5.37
2023-02-28T04:24:23.408Z,4.53
2023-02-28T04:26:54.903Z,3.10
2023-02-28T04:29:26.622Z,2.33
2023-02-28T04:31:59.070Z,2.67
2023-02-28T04:34:29.878Z,3.40
2023-02-28T04:37:17.027Z,3.30
2023-02-28T04:39:49.574Z,4.10
2023-02-28T04:42:19.626Z,1.40
2023-02-28T04:44:49.460Z,2.50
2023-02-28T04:47:19.348Z,2.63
2023-02-28T04:49:49.182Z,2.83
2023-02-28T04:52:19.198Z,3.40
2023-02-28T04:54:51.625Z,1.40
2023-02-28T04:57:21.451Z,3.00
2023-02-28T04:59:51.252Z,5.53
2023-02-28T05:02:22.346Z,4.73
2023-02-28T05:04:52.207Z,2.87
2023-02-28T05:07:22.086Z,3.60
2023-02-28T05:09:54.512Z,3.03
2023-02-28T05:12:24.346Z,3.23
2023-02-28T05:14:54.144Z,2.70
2023-02-28T05:17:23.974Z,2.60
2023-02-28T05:19:55.794Z,1.73
2023-02-28T05:22:27.036Z,3.43
2023-02-28T05:24:59.447Z,1.80
2023-02-28T05:27:29.953Z,3.70
2023-02-28T05:30:00.149Z,6.73
2023-02-28T05:32:30.015Z,5.80
2023-02-28T05:34:59.890Z,7.83
2023-02-28T05:37:29.709Z,6.47
2023-02-28T05:40:02.174Z,6.67
2023-02-28T05:42:32.028Z,7.53
2023-02-28T05:45:01.859Z,6.80
2023-02-28T05:47:31.666Z,7.17
2023-02-28T05:50:01.627Z,6.37
2023-02-28T05:52:31.498Z,5.83
2023-02-28T05:55:03.913Z,7.93
2023-02-28T05:57:34.163Z,6.73
2023-02-28T06:00:04.513Z,5.90
2023-02-28T06:02:34.392Z,7.03
2023-02-28T06:05:04.255Z,6.23
2023-02-28T06:07:34.078Z,5.77
2023-02-28T06:10:06.742Z,5.37
2023-02-28T06:12:36.559Z,5.33
2023-02-28T06:15:07.247Z,5.70
2023-02-28T06:17:37.076Z,4.47
2023-02-28T06:20:07.722Z,4.60
2023-02-28T06:22:37.585Z,5.30
2023-02-28T06:25:11.218Z,4.63
2023-02-28T06:27:41.251Z,6.00
2023-02-28T06:30:12.556Z,5.20
2023-02-28T06:32:42.395Z,5.20
2023-02-28T06:35:12.512Z,6.37
2023-02-28T06:37:43.087Z,4.73
2023-02-28T06:40:16.720Z,6.10
2023-02-28T06:42:46.572Z,6.37
2023-02-28T06:45:16.986Z,5.83
2023-02-28T06:47:46.825Z,6.53
2023-02-28T06:50:20.816Z,7.27
2023-02-28T06:52:55.089Z,6.87
2023-02-28T06:55:28.797Z,6.80
2023-02-28T06:57:59.702Z,5.70
2023-02-28T07:00:30.122Z,6.47
2023-02-28T07:02:59.945Z,5.87
2023-02-28T07:05:29.787Z,6.60
2023-02-28T07:07:59.684Z,6.47
2023-02-28T07:10:32.227Z,6.67
2023-02-28T07:13:02.337Z,7.17
2023-02-28T07:15:37.060Z,6.13
2023-02-28T07:18:09.236Z,8.17
2023-02-28T07:20:39.385Z,7.17
2023-02-28T07:23:09.187Z,6.10
2023-02-28T07:25:41.648Z,6.70
2023-02-28T07:28:11.490Z,6.80
2023-02-28T07:30:41.291Z,7.97
2023-02-28T07:33:11.291Z,5.70
2023-02-28T07:35:41.173Z,6.90
2023-02-28T07:38:11.662Z,7.00
2023-02-28T07:40:44.146Z,6.47
2023-02-28T07:43:14.245Z,8.17
2023-02-28T07:45:44.073Z,9.00
2023-02-28T07:48:13.897Z,8.23
2023-02-28T07:50:43.857Z,7.63
2023-02-28T07:53:13.662Z,9.23
2023-02-28T07:55:46.075Z,8.87
2023-02-28T07:58:15.902Z,8.17
2023-02-28T08:00:45.876Z,8.80
2023-02-28T08:03:16.503Z,7.27
2023-02-28T08:05:46.332Z,7.93
2023-02-28T08:08:16.353Z,10.13
2023-02-28T08:10:48.898Z,7.60
2023-02-28T08:13:19.272Z,7.87
2023-02-28T08:15:49.237Z,9.43
2023-02-28T08:18:19.097Z,8.83
2023-02-28T08:20:48.997Z,11.20
2023-02-28T08:23:18.911Z,9.63
2023-02-28T08:25:57.564Z,9.70
2023-02-28T08:28:27.792Z,8.50
2023-02-28T08:30:58.301Z,8.73
2023-02-28T08:33:29.582Z,8.30
2023-02-28T08:36:00.409Z,7.53
2023-02-28T08:38:30.564Z,9.77
2023-02-28T08:41:10.061Z,9.37
2023-02-28T08:43:40.807Z,8.40
2023-02-28T08:46:11.298Z,10.57
2023-02-28T08:48:41.700Z,9.47
2023-02-28T08:51:13.528Z,10.30
2023-02-28T08:53:44.346Z,11.47
2023-02-28T08:56:18.557Z,9.73
2023-02-28T08:58:49.468Z,9.37
2023-02-28T09:01:21.292Z,10.80
2023-02-28T09:03:53.190Z,9.63
2023-02-28T09:06:25.566Z,11.80
2023-02-28T09:08:56.422Z,11.90
2023-02-28T09:11:29.147Z,10.77
2023-02-28T09:14:00.252Z,9.03
2023-02-28T09:16:30.530Z,9.23
2023-02-28T09:19:00.771Z,11.97
2023-02-28T09:21:31.174Z,9.37
2023-02-28T09:24:01.269Z,11.13
2023-02-28T09:26:39.091Z,11.00
2023-02-28T09:29:18.720Z,11.00
2023-02-28T09:31:48.624Z,10.70
2023-02-28T09:34:18.759Z,10.87
2023-02-28T09:36:49.109Z,10.47
2023-02-28T09:39:19.202Z,8.30
2023-02-28T09:41:54.910Z,9.30
2023-02-28T09:44:30.791Z,9.47
2023-02-28T09:47:04.268Z,9.73
2023-02-28T09:49:42.021Z,8.83
2023-02-28T09:52:16.561Z,8.57
2023-02-28T09:54:46.505Z,7.90
2023-02-28T09:57:26.425Z,8.13
2023-02-28T10:00:10.651Z,9.83
2023-02-28T10:03:04.561Z,8.03
2023-02-28T10:05:42.819Z,9.37
2023-02-28T10:08:18.439Z,9.57
2023-02-28T10:10:50.751Z,8.57
2023-02-28T10:13:30.082Z,10.33
2023-02-28T10:16:05.696Z,9.20
2023-02-28T10:18:48.806Z,7.80
2023-02-28T10:21:25.006Z,7.93
2023-02-28T10:24:03.265Z,9.13
2023-02-28T10:26:36.507Z,7.33
2023-02-28T10:29:09.080Z,9.00
2023-02-28T10:31:38.978Z,8.23
2023-02-28T10:34:09.012Z,5.87
2023-02-28T10:36:38.831Z,8.30
2023-02-28T10:39:37.736Z,9.50
2023-02-28T10:42:07.965Z,10.67
2023-02-28T10:44:40.462Z,8.67
2023-02-28T10:47:18.511Z,7.80
2023-02-28T10:49:53.611Z,8.53
2023-02-28T10:52:38.001Z,6.87
2023-02-28T10:55:26.169Z,7.53
2023-02-28T10:57:56.690Z,6.87
2023-02-28T11:00:35.804Z,6.97
2023-02-28T11:03:06.116Z,11.17
2023-02-28T11:05:39.164Z,7.93
2023-02-28T11:08:16.702Z,6.00
2023-02-28T11:10:50.451Z,6.20
2023-02-28T11:13:24.072Z,6.50
2023-02-28T11:15:59.501Z,6.90
2023-02-28T11:18:33.403Z,6.90
2023-02-28T11:21:05.401Z,6.43
2023-02-28T11:23:38.167Z,7.53
2023-02-28T11:26:10.794Z,5.60
2023-02-28T11:28:42.484Z,7.07
2023-02-28T11:31:24.224Z,6.03
2023-02-28T11:33:57.108Z,6.83
2023-02-28T11:36:29.281Z,7.67
2023-02-28T11:39:03.410Z,6.67
2023-02-28T11:41:56.017Z,7.73
2023-02-28T11:44:36.380Z,6.33
2023-02-28T11:47:15.495Z,5.93
2023-02-28T11:50:00.555Z,5.30
2023-02-28T11:52:40.627Z,8.10
2023-02-28T11:55:22.986Z,5.57
2023-02-28T11:58:17.792Z,6.87
2023-02-28T12:01:10.528Z,6.93
2023-02-28T12:03:54.366Z,6.90
2023-02-28T12:06:29.561Z,6.10
2023-02-28T12:09:10.203Z,5.80
2023-02-28T12:11:49.089Z,5.70
2023-02-28T12:14:31.563Z,5.30
2023-02-28T12:17:16.764Z,7.17
2023-02-28T12:19:57.781Z,5.33
2023-02-28T12:22:33.881Z,5.30
2023-02-28T12:25:33.521Z,6.13
2023-02-28T12:28:04.260Z,6.50
2023-02-28T12:30:36.698Z,7.57
2023-02-28T12:33:10.307Z,4.77
2023-02-28T12:35:51.660Z,6.43
2023-02-28T12:38:25.025Z,5.70
2023-02-28T12:40:58.691Z,5.70
2023-02-28T12:43:35.036Z,8.27
2023-02-28T12:46:11.702Z,6.30
2023-02-28T12:48:47.301Z,5.13
2023-02-28T12:51:21.562Z,6.67
2023-02-28T12:54:01.693Z,6.93
2023-02-28T12:56:43.252Z,6.27
2023-02-28T12:59:19.989Z,6.00
2023-02-28T13:02:22.534Z,4.20
2023-02-28T13:05:17.214Z,7.20
2023-02-28T13:08:32.072Z,5.93
2023-02-28T13:11:10.036Z,7.40
2023-02-28T13:13:49.162Z,5.73
2023-02-28T13:16:19.020Z,7.40
2023-02-28T13:18:50.685Z,5.77
2023-02-28T13:21:28.088Z,6.70
2023-02-28T13:24:07.168Z,5.67
2023-02-28T13:27:31.031Z,6.70
2023-02-28T13:30:04.083Z,5.97
2023-02-28T13:32:40.530Z,5.60
2023-02-28T13:35:41.552Z,6.20
2023-02-28T13:41:58.269Z,7.70
2023-02-28T13:44:28.264Z,8.67
2023-02-28T13:47:31.929Z,7.67
2023-02-28T13:50:25.065Z,7.40
2023-02-28T13:53:16.249Z,6.27
2023-02-28T13:55:50.519Z,5.97
2023-02-28T13:58:43.820Z,7.37
2023-02-28T14:01:29.453Z,8.17
2023-02-28T14:04:56.212Z,8.70
2023-02-28T14:07:35.713Z,7.27
2023-02-28T14:10:09.697Z,7.77
2023-02-28T14:13:17.194Z,7.63
2023-02-28T14:16:01.559Z,8.97
2023-02-28T14:18:35.458Z,8.37
2023-02-28T14:21:16.882Z,7.97
2023-02-28T14:24:01.017Z,9.33
2023-02-28T14:26:48.188Z,8.70
2023-02-28T14:29:34.268Z,8.50
2023-02-28T14:32:09.886Z,9.47
2023-02-28T14:34:48.436Z,10.37
2023-02-28T14:37:24.285Z,9.90
2023-02-28T14:39:58.222Z,10.00
2023-02-28T14:42:36.493Z,10.83
2023-02-28T14:45:08.279Z,10.80
2023-02-28T14:47:39.976Z,9.40
2023-02-28T14:50:33.401Z,10.10
2023-02-28T14:55:41.426Z,10.27
2023-02-28T14:58:26.092Z,11.77
2023-02-28T15:01:01.133Z,9.30
2023-02-28T15:03:35.872Z,11.10
2023-02-28T15:06:08.100Z,9.77
2023-02-28T15:11:27.771Z,8.97
2023-02-28T15:13:59.212Z,10.67
2023-02-28T15:16:33.976Z,10.93
2023-02-28T15:19:06.949Z,9.70
2023-02-28T15:21:40.016Z,9.83
2023-02-28T15:24:14.979Z,9.67
2023-02-28T15:26:53.907Z,10.80
2023-02-28T15:29:25.979Z,10.77
2023-02-28T15:32:00.981Z,12.80
2023-02-28T15:34:43.478Z,12.27
2023-02-28T15:37:31.148Z,11.03
2023-02-28T15:40:08.325Z,13.13
2023-02-28T15:42:40.767Z,11.20
2023-02-28T15:45:31.034Z,10.83
2023-02-28T15:48:14.125Z,11.20
2023-02-28T15:50:44.766Z,11.50
2023-02-28T15:53:21.232Z,9.40
2023-02-28T15:56:05.131Z,8.63
2023-02-28T15:58:40.399Z,11.63
2023-02-28T16:01:24.328Z,10.83
2023-02-28T16:04:00.409Z,11.53
2023-02-28T16:06:42.569Z,11.60
2023-02-28T16:09:15.530Z,10.80
2023-02-28T16:11:48.808Z,9.83
2023-02-28T16:14:24.951Z,10.07
2023-02-28T16:16:56.614Z,11.27
2023-02-28T16:19:27.336Z,10.70
2023-02-28T16:21:57.361Z,11.07
2023-02-28T16:24:27.199Z,9.67
2023-02-28T16:26:59.759Z,11.07
2023-02-28T16:29:35.243Z,10.17
2023-02-28T16:32:07.959Z,11.80
2023-02-28T16:34:37.808Z,9.10
2023-02-28T16:37:13.860Z,9.43
2023-02-28T16:39:44.204Z,11.40
2023-02-28T16:42:23.003Z,10.10
2023-02-28T16:44:56.208Z,8.90
2023-02-28T16:47:27.805Z,10.77
2023-02-28T16:49:57.551Z,10.83
2023-02-28T16:52:27.314Z,9.57
2023-02-28T16:54:57.146Z,8.50
2023-02-28T16:57:29.185Z,10.07
2023-02-28T17:00:01.599Z,8.77
2023-02-28T17:02:31.652Z,10.77
2023-02-28T17:05:01.555Z,8.97
2023-02-28T17:07:32.854Z,8.73
2023-02-28T17:10:09.663Z,8.17
2023-02-28T17:12:39.430Z,9.87
2023-02-28T17:15:14.143Z,8.70
2023-02-28T17:17:45.083Z,8.07
2023-02-28T17:20:16.802Z,10.03
2023-02-28T17:22:46.808Z,11.03
2023-02-28T17:25:16.550Z,9.07
2023-02-28T17:27:46.394Z,9.73
2023-02-28T17:30:21.951Z,10.67
2023-02-28T17:32:51.973Z,9.80
2023-02-28T17:35:22.003Z,10.07
2023-02-28T17:37:52.024Z,8.97
2023-02-28T17:40:26.916Z,8.90
2023-02-28T17:42:57.877Z,10.03
2023-02-28T17:45:30.466Z,8.10
2023-02-28T17:48:00.358Z,9.40
2023-02-28T17:50:33.174Z,8.50
2023-02-28T17:53:03.141Z,10.33
2023-02-28T17:55:34.801Z,8.83
2023-02-28T17:58:04.716Z,9.10
2023-02-28T18:00:37.383Z,9.43
2023-02-28T18:03:07.198Z,8.80
2023-02-28T18:05:38.171Z,9.90
2023-02-28T18:08:09.107Z,10.13
2023-02-28T18:10:38.910Z,8.70
2023-02-28T18:13:08.862Z,7.23
2023-02-28T18:15:50.720Z,7.37
2023-02-28T18:18:20.861Z,9.00
2023-02-28T18:20:53.341Z,7.80
2023-02-28T18:23:23.321Z,10.17
2023-02-28T18:25:54.258Z,8.93
2023-02-28T18:28:34.974Z,8.60
2023-02-28T18:31:16.406Z,8.33
2023-02-28T18:33:46.882Z,10.27
2023-02-28T18:36:17.101Z,8.37
2023-02-28T18:38:47.114Z,9.63
2023-02-28T18:41:17.140Z,11.63
2023-02-28T18:43:47.250Z,10.43
2023-02-28T18:46:21.480Z,10.93
2023-02-28T18:48:51.266Z,9.10
2023-02-28T18:51:23.446Z,7.90
2023-02-28T18:53:53.492Z,10.43
2023-02-28T18:56:25.790Z,8.30
2023-02-28T18:58:56.577Z,10.40
2023-02-28T19:01:32.655Z,11.07
2023-02-28T19:04:07.634Z,9.40
2023-02-28T19:06:38.410Z,9.33
2023-02-28T19:09:08.552Z,8.10
2023-02-28T19:11:38.778Z,9.07
2023-02-28T19:14:09.733Z,12.20
2023-02-28T19:16:42.482Z,9.27
2023-02-28T19:19:12.385Z,10.67
2023-02-28T19:21:42.254Z,10.30
2023-02-28T19:24:12.494Z,9.60
2023-02-28T19:26:42.363Z,9.40
2023-02-28T19:29:12.425Z,10.13
2023-02-28T19:31:48.611Z,9.80
2023-02-28T19:34:18.508Z,10.03
2023-02-28T19:36:48.269Z,10.13
2023-02-28T19:39:19.046Z,8.93
2023-02-28T19:41:48.853Z,11.93
2023-02-28T19:44:18.667Z,10.77
2023-02-28T19:46:51.072Z,11.33
2023-02-28T19:49:21.215Z,11.03
2023-02-28T19:51:50.968Z,10.90
2023-02-28T19:54:20.852Z,10.63
2023-02-28T19:56:50.763Z,9.80
2023-02-28T19:59:25.971Z,11.80
2023-02-28T20:02:03.349Z,11.17
2023-02-28T20:04:33.191Z,11.43
2023-02-28T20:07:03.003Z,10.13
2023-02-28T20:09:33.991Z,10.57
2023-02-28T20:12:07.020Z,9.63
2023-02-28T20:14:43.337Z,9.03
2023-02-28T20:17:15.967Z,8.83
2023-02-28T20:19:45.827Z,10.27
2023-02-28T20:22:15.800Z,8.47
2023-02-28T20:24:45.662Z,9.10
2023-02-28T20:27:15.782Z,9.23
2023-02-28T20:29:45.558Z,9.90
2023-02-28T20:32:18.093Z,9.23
2023-02-28T20:34:47.902Z,10.63
2023-02-28T20:37:18.488Z,9.73
2023-02-28T20:39:49.756Z,7.70
2023-02-28T20:42:19.530Z,9.60
2023-02-28T20:44:49.348Z,7.90
2023-02-28T20:47:22.177Z,8.17
2023-02-28T20:49:52.041Z,8.20
2023-02-28T20:52:21.814Z,10.90
2023-02-28T20:54:51.745Z,8.70
2023-02-28T20:57:21.568Z,8.60
2023-02-28T20:59:51.634Z,10.30
2023-02-28T21:02:24.427Z,10.27
2023-02-28T21:04:54.330Z,11.83
2023-02-28T21:07:25.112Z,9.40
2023-02-28T21:09:57.537Z,10.70
2023-02-28T21:12:27.446Z,9.93
2023-02-28T21:14:57.264Z,10.03
2023-02-28T21:17:31.475Z,11.27
2023-02-28T21:20:01.437Z,10.40
2023-02-28T21:22:31.519Z,11.73
2023-02-28T21:25:01.363Z,13.50
2023-02-28T21:27:31.230Z,12.97
2023-02-28T21:30:01.156Z,11.43
2023-02-28T21:32:33.755Z,13.90
2023-02-28T21:35:03.685Z,11.43
2023-02-28T21:37:33.798Z,12.40
2023-02-28T21:40:03.789Z,13.13
2023-02-28T21:42:33.734Z,11.43
2023-02-28T21:45:03.874Z,12.53
2023-02-28T21:47:36.286Z,13.83
2023-02-28T21:50:06.380Z,10.50
2023-02-28T21:52:36.200Z,11.57
2023-02-28T21:55:06.056Z,12.80
2023-02-28T21:57:37.674Z,11.00
2023-02-28T22:00:11.847Z,8.63
2023-02-28T22:02:44.460Z,8.67
2023-02-28T22:05:14.289Z,8.83
2023-02-28T22:07:44.658Z,8.97
2023-02-28T22:10:14.820Z,8.57
2023-02-28T22:12:44.587Z,10.27
2023-02-28T22:15:15.508Z,10.17
2023-02-28T22:17:48.168Z,11.07
2023-02-28T22:20:18.312Z,9.23
2023-02-28T22:22:48.055Z,9.07
2023-02-28T22:25:18.830Z,9.37
2023-02-28T22:27:48.595Z,10.07
2023-02-28T22:30:19.221Z,8.77
2023-02-28T22:32:51.657Z,9.47
2023-02-28T22:35:22.015Z,9.63
2023-02-28T22:37:51.799Z,9.17
2023-02-28T22:40:21.789Z,10.83
2023-02-28T22:42:51.690Z,10.50
2023-02-28T22:45:21.468Z,7.90
2023-02-28T22:47:54.042Z,11.33
2023-02-28T22:50:23.954Z,9.20
2023-02-28T22:52:53.763Z,10.00
2023-02-28T22:55:23.553Z,8.60
2023-02-28T22:57:53.376Z,8.80
2023-02-28T23:00:24.060Z,8.63
2023-02-28T23:02:56.483Z,10.10
2023-02-28T23:05:26.518Z,9.40
2023-02-28T23:07:56.618Z,8.47
2023-02-28T23:10:26.530Z,8.23
2023-02-28T23:12:56.565Z,8.70
2023-02-28T23:15:26.573Z,8.30
2023-02-28T23:17:58.953Z,7.60
2023-02-28T23:20:29.684Z,9.83
2023-02-28T23:22:59.457Z,8.60
2023-02-28T23:25:29.319Z,9.03
2023-02-28T23:27:59.538Z,9.17
2023-02-28T23:30:29.642Z,8.93
2023-02-28T23:33:01.991Z,9.37
2023-02-28T23:35:31.808Z,9.33
2023-02-28T23:38:01.899Z,8.53
2023-02-28T23:40:31.737Z,8.37
2023-02-28T23:43:01.798Z,8.87
2023-02-28T23:45:31.652Z,9.97
2023-02-28T23:48:04.108Z,8.30
2023-02-28T23:50:33.947Z,10.23
2023-02-28T23:53:03.702Z,9.60
2023-02-28T23:55:37.983Z,9.70
2023-02-28T23:58:10.042Z,8.93
